Time;durP1;ratioP1;P1;durP2;ratioP2;P2;SDS_P1;SDS_P2;PMS_P1;PMS_P2;Temp;Humidity;BMP_temperature;BMP_pressure;BME280_temperature;BME280_humidity;BME280_pressure;Samples;Min_cycle;Max_cycle;Signal;HPM_P1;HPM_P2
2022/10/24 00:01:01;;;;;;;;;;;23.40;56.70;;;;;;1501911;77;801;-57
2022/10/24 00:03:03;;;;;;;;;;;23.40;56.80;;;;;;1503152;77;746;-56
2022/10/24 00:05:05;;;;;;;;;;;23.40;56.70;;;;;;1507854;77;774;-57
2022/10/24 00:07:07;;;;;;;;;;;23.40;56.80;;;;;;1499821;79;1079;-56
2022/10/24 00:09:09;;;;;;;;;;;23.40;56.60;;;;;;1497776;77;1527;-57
2022/10/24 00:11:12;;;;;;;;;;;23.50;56.70;;;;;;1505989;77;746;-57
2022/10/24 00:13:15;;;;;;;;;;;23.40;56.60;;;;;;1507336;77;1935;-57
2022/10/24 00:15:17;;;;;;;;;;;23.40;56.70;;;;;;1500044;77;794;-56
2022/10/24 00:17:18;;;;;;;;;;;23.40;56.70;;;;;;1504876;77;1157;-56
2022/10/24 00:19:20;;;;;;;;;;;23.30;56.80;;;;;;1507169;77;781;-56
2022/10/24 00:21:22;;;;;;;;;;;23.30;56.80;;;;;;1499393;77;667;-55
2022/10/24 00:23:24;;;;;;;;;;;23.30;56.80;;;;;;1502987;77;1553;-56
2022/10/24 00:25:26;;;;;;;;;;;23.30;56.90;;;;;;1507426;77;1119;-57
2022/10/24 00:27:28;;;;;;;;;;;23.30;57.00;;;;;;1502840;77;741;-57
2022/10/24 00:29:30;;;;;;;;;;;23.40;56.80;;;;;;1504336;78;676;-57
2022/10/24 00:31:32;;;;;;;;;;;23.40;56.70;;;;;;1500503;77;809;-57
2022/10/24 00:33:34;;;;;;;;;;;23.50;56.80;;;;;;1504972;77;1947;-56
2022/10/24 00:35:35;;;;;;;;;;;23.40;56.50;;;;;;1504963;77;1094;-56
2022/10/24 00:37:37;;;;;;;;;;;23.40;56.60;;;;;;1512520;77;1610;-56
2022/10/24 00:39:39;;;;;;;;;;;23.40;56.50;;;;;;1498384;77;691;-57
2022/10/24 00:41:41;;;;;;;;;;;23.40;56.40;;;;;;1504765;77;755;-56
2022/10/24 00:43:43;;;;;;;;;;;23.50;56.50;;;;;;1504683;77;672;-56
2022/10/24 00:45:46;;;;;;;;;;;23.50;56.50;;;;;;1513551;77;1147;-56
2022/10/24 00:47:48;;;;;;;;;;;23.50;56.50;;;;;;1506082;77;726;-56
2022/10/24 00:50:04;;;;;;;;;;;23.50;56.50;;;;;;1496004;77;745;-56
2022/10/24 00:52:07;;;;;;;;;;;23.40;56.50;;;;;;1500179;79;1590;-56
2022/10/24 00:54:10;;;;;;;;;;;23.40;56.60;;;;;;1501456;78;1937;-56
2022/10/24 00:56:12;;;;;;;;;;;23.40;56.60;;;;;;1501386;77;1125;-56
2022/10/24 00:58:14;;;;;;;;;;;23.50;56.70;;;;;;1508412;77;690;-56
2022/10/24 01:00:18;;;;;;;;;;;23.50;56.70;;;;;;1508791;77;776;-56
2022/10/24 01:02:20;;;;;;;;;;;23.40;56.70;;;;;;1506412;77;809;-56
2022/10/24 01:04:22;;;;;;;;;;;23.40;56.70;;;;;;1501386;77;1531;-57
2022/10/24 01:06:28;;;;;;;;;;;23.30;56.70;;;;;;1511364;77;1134;-55
2022/10/24 01:08:32;;;;;;;;;;;23.30;56.70;;;;;;1500920;77;1440;-56
2022/10/24 01:10:52;;;;;;;;;;;23.30;56.70;;;;;;1501372;77;2101;-56
2022/10/24 01:13:11;;;;;;;;;;;23.30;56.80;;;;;;1503258;77;822;-54
2022/10/24 01:15:15;;;;;;;;;;;23.30;56.90;;;;;;1499074;77;1927;-55
2022/10/24 01:17:24;;;;;;;;;;;23.20;56.90;;;;;;1509374;77;1932;-54
2022/10/24 01:19:27;;;;;;;;;;;23.20;57.00;;;;;;1506418;77;1546;-56
2022/10/24 01:21:48;;;;;;;;;;;23.20;57.10;;;;;;1503410;77;743;-56
2022/10/24 01:24:03;;;;;;;;;;;23.20;57.10;;;;;;1513171;77;774;-55
2022/10/24 01:26:06;;;;;;;;;;;23.20;57.10;;;;;;1495870;77;1101;-56
2022/10/24 01:28:09;;;;;;;;;;;23.20;57.10;;;;;;1497250;77;725;-56
2022/10/24 01:30:11;;;;;;;;;;;23.20;57.20;;;;;;1499626;77;725;-56
2022/10/24 01:32:15;;;;;;;;;;;23.20;57.20;;;;;;1506293;77;737;-56
2022/10/24 01:34:18;;;;;;;;;;;23.20;57.30;;;;;;1504815;79;1927;-56
2022/10/24 01:36:34;;;;;;;;;;;23.30;57.20;;;;;;1509809;77;1526;-54
2022/10/24 01:38:37;;;;;;;;;;;23.30;57.10;;;;;;1508220;77;766;-56
2022/10/24 01:40:41;;;;;;;;;;;23.30;56.90;;;;;;1500661;79;779;-56
2022/10/24 01:42:43;;;;;;;;;;;23.30;56.70;;;;;;1503319;77;1907;-54
2022/10/24 01:44:46;;;;;;;;;;;23.40;56.70;;;;;;1497424;79;736;-56
2022/10/24 01:46:50;;;;;;;;;;;23.40;56.70;;;;;;1510725;77;1547;-56
2022/10/24 01:48:53;;;;;;;;;;;23.40;56.60;;;;;;1495301;77;1613;-55
2022/10/24 01:50:55;;;;;;;;;;;23.40;56.60;;;;;;1498713;77;1783;-55
2022/10/24 01:52:57;;;;;;;;;;;23.50;56.60;;;;;;1504370;79;813;-57
2022/10/24 01:54:59;;;;;;;;;;;23.40;56.50;;;;;;1505639;77;1942;-56
2022/10/24 01:57:01;;;;;;;;;;;23.50;56.60;;;;;;1521057;77;1118;-57
2022/10/24 01:59:06;;;;;;;;;;;23.50;56.60;;;;;;1502411;77;780;-56
2022/10/24 02:01:09;;;;;;;;;;;23.40;56.40;;;;;;1505747;77;1553;-56
2022/10/24 02:03:13;;;;;;;;;;;23.40;56.40;;;;;;1496747;77;724;-57
2022/10/24 02:05:19;;;;;;;;;;;23.40;56.40;;;;;;1504164;77;1813;-57
2022/10/24 02:07:21;;;;;;;;;;;23.50;56.60;;;;;;1496850;77;714;-56
2022/10/24 02:09:23;;;;;;;;;;;23.40;56.50;;;;;;1497114;77;745;-55
2022/10/24 02:11:25;;;;;;;;;;;23.40;56.50;;;;;;1508354;77;796;-54
2022/10/24 02:13:29;;;;;;;;;;;23.40;56.40;;;;;;1505160;77;680;-56
2022/10/24 02:15:34;;;;;;;;;;;23.50;56.50;;;;;;1506913;77;1919;-56
2022/10/24 02:17:36;;;;;;;;;;;23.40;56.40;;;;;;1501981;77;675;-56
2022/10/24 02:19:38;;;;;;;;;;;23.40;56.40;;;;;;1512801;77;786;-56
2022/10/24 02:21:50;;;;;;;;;;;23.40;56.50;;;;;;1504153;77;676;-54
2022/10/24 02:23:54;;;;;;;;;;;23.40;56.40;;;;;;1506135;77;724;-56
2022/10/24 02:25:56;;;;;;;;;;;23.40;56.60;;;;;;1491681;77;1191;-56
2022/10/24 02:28:00;;;;;;;;;;;23.40;56.70;;;;;;1499916;77;859;-54
2022/10/24 02:30:07;;;;;;;;;;;23.30;56.80;;;;;;1500799;77;1781;-57
2022/10/24 02:32:10;;;;;;;;;;;23.30;56.90;;;;;;1503338;77;733;-55
2022/10/24 02:34:11;;;;;;;;;;;23.30;56.90;;;;;;1500150;77;1936;-56
2022/10/24 02:36:13;;;;;;;;;;;23.30;57.00;;;;;;1511072;77;1159;-56
2022/10/24 02:38:17;;;;;;;;;;;23.30;57.00;;;;;;1513087;77;717;-56
2022/10/24 02:40:19;;;;;;;;;;;23.30;57.10;;;;;;1505111;77;751;-53
2022/10/24 02:42:22;;;;;;;;;;;23.30;57.10;;;;;;1504672;77;745;-53
2022/10/24 02:44:24;;;;;;;;;;;23.30;57.10;;;;;;1497086;77;1540;-53
2022/10/24 02:46:26;;;;;;;;;;;23.20;57.00;;;;;;1510174;77;1194;-54
2022/10/24 02:48:29;;;;;;;;;;;23.30;57.10;;;;;;1511104;77;722;-56
2022/10/24 02:50:31;;;;;;;;;;;23.30;57.00;;;;;;1491234;77;741;-56
2022/10/24 02:52:33;;;;;;;;;;;23.30;57.00;;;;;;1497237;77;929;-56
2022/10/24 02:54:35;;;;;;;;;;;23.20;57.00;;;;;;1505248;79;1935;-55
2022/10/24 02:56:37;;;;;;;;;;;23.20;57.00;;;;;;1510146;77;1150;-53
2022/10/24 02:58:39;;;;;;;;;;;23.20;57.10;;;;;;1505230;77;1498;-54
2022/10/24 03:00:41;;;;;;;;;;;23.20;57.30;;;;;;1504327;77;686;-56
2022/10/24 03:02:42;;;;;;;;;;;23.20;57.30;;;;;;1505923;77;746;-57
2022/10/24 03:04:44;;;;;;;;;;;23.20;57.50;;;;;;1496565;78;727;-56
2022/10/24 03:06:46;;;;;;;;;;;23.10;57.50;;;;;;1504800;77;1154;-56
2022/10/24 03:08:48;;;;;;;;;;;23.20;57.40;;;;;;1505139;77;796;-56
2022/10/24 03:10:50;;;;;;;;;;;23.20;57.40;;;;;;1499709;77;700;-56
2022/10/24 03:12:52;;;;;;;;;;;23.20;57.30;;;;;;1509305;77;1541;-53
2022/10/24 03:14:54;;;;;;;;;;;23.10;57.30;;;;;;1492337;77;1943;-57
2022/10/24 03:16:55;;;;;;;;;;;23.10;57.40;;;;;;1490518;78;1114;-57
2022/10/24 03:18:57;;;;;;;;;;;23.10;57.50;;;;;;1504073;78;739;-57
2022/10/24 03:20:59;;;;;;;;;;;23.10;57.50;;;;;;1502733;77;700;-56
2022/10/24 03:23:01;;;;;;;;;;;23.10;57.60;;;;;;1504777;77;768;-56
2022/10/24 03:25:05;;;;;;;;;;;23.10;57.60;;;;;;1504568;77;1506;-55
2022/10/24 03:27:07;;;;;;;;;;;23.00;57.60;;;;;;1502605;77;1173;-57
2022/10/24 03:29:08;;;;;;;;;;;23.10;57.80;;;;;;1503173;77;777;-56
2022/10/24 03:31:10;;;;;;;;;;;23.00;57.70;;;;;;1503230;77;841;-56
2022/10/24 03:33:12;;;;;;;;;;;23.00;57.70;;;;;;1501675;77;775;-57
2022/10/24 03:35:15;;;;;;;;;;;23.00;57.80;;;;;;1510304;77;1948;-56
2022/10/24 03:37:17;;;;;;;;;;;23.00;57.80;;;;;;1499698;77;1132;-56
2022/10/24 03:39:19;;;;;;;;;;;22.90;57.80;;;;;;1513085;77;1546;-56
2022/10/24 03:41:21;;;;;;;;;;;23.00;57.80;;;;;;1506300;77;718;-57
2022/10/24 03:43:22;;;;;;;;;;;23.00;58.00;;;;;;1496924;77;688;-56
2022/10/24 03:45:24;;;;;;;;;;;22.90;57.90;;;;;;1508408;78;1142;-54
2022/10/24 03:47:26;;;;;;;;;;;23.00;57.90;;;;;;1497981;77;731;-56
2022/10/24 03:49:28;;;;;;;;;;;22.90;58.00;;;;;;1505043;77;831;-56
2022/10/24 03:51:30;;;;;;;;;;;22.90;58.00;;;;;;1507497;77;792;-56
2022/10/24 03:53:32;;;;;;;;;;;22.90;58.10;;;;;;1508937;77;1507;-56
2022/10/24 03:55:34;;;;;;;;;;;22.90;58.10;;;;;;1504629;77;1945;-56
2022/10/24 03:57:36;;;;;;;;;;;23.00;58.20;;;;;;1501173;77;783;-56
2022/10/24 03:59:38;;;;;;;;;;;23.00;58.20;;;;;;1500994;77;721;-56
2022/10/24 04:01:40;;;;;;;;;;;23.00;58.20;;;;;;1501891;77;722;-56
2022/10/24 04:03:41;;;;;;;;;;;23.00;58.20;;;;;;1510408;77;730;-56
2022/10/24 04:05:43;;;;;;;;;;;23.10;58.20;;;;;;1504687;77;1133;-56
2022/10/24 04:07:45;;;;;;;;;;;23.00;57.90;;;;;;1505512;77;1564;-57
2022/10/24 04:09:47;;;;;;;;;;;23.00;58.00;;;;;;1503052;77;725;-57
2022/10/24 04:11:50;;;;;;;;;;;23.00;58.00;;;;;;1508549;78;722;-56
2022/10/24 04:13:51;;;;;;;;;;;23.00;58.00;;;;;;1504511;77;678;-56
2022/10/24 04:15:53;;;;;;;;;;;23.10;58.10;;;;;;1506430;77;1939;-57
2022/10/24 04:17:55;;;;;;;;;;;23.00;58.00;;;;;;1503724;77;719;-57
2022/10/24 04:19:57;;;;;;;;;;;23.10;58.10;;;;;;1494011;77;706;-56
2022/10/24 04:21:59;;;;;;;;;;;23.00;58.00;;;;;;1505801;77;1574;-56
2022/10/24 04:24:01;;;;;;;;;;;23.00;58.00;;;;;;1506560;77;657;-55
2022/10/24 04:26:03;;;;;;;;;;;23.10;58.20;;;;;;1500490;77;1200;-57
2022/10/24 04:28:05;;;;;;;;;;;23.00;58.10;;;;;;1498514;79;907;-57
2022/10/24 04:30:07;;;;;;;;;;;23.10;58.50;;;;;;1509541;77;719;-57
2022/10/24 04:32:09;;;;;;;;;;;23.00;58.40;;;;;;1502538;78;749;-57
2022/10/24 04:34:11;;;;;;;;;;;23.00;58.30;;;;;;1498267;77;786;-57
2022/10/24 04:36:13;;;;;;;;;;;23.20;58.10;;;;;;1501587;77;1947;-57
2022/10/24 04:38:15;;;;;;;;;;;23.20;57.90;;;;;;1503444;77;742;-57
2022/10/24 04:40:17;;;;;;;;;;;23.20;57.80;;;;;;1501687;77;707;-58
2022/10/24 04:42:19;;;;;;;;;;;23.30;57.90;;;;;;1505094;77;702;-57
2022/10/24 04:44:20;;;;;;;;;;;23.20;57.70;;;;;;1508176;77;815;-58
2022/10/24 04:46:22;;;;;;;;;;;23.20;57.70;;;;;;1503524;77;1156;-57
2022/10/24 04:48:24;;;;;;;;;;;23.20;57.80;;;;;;1504104;77;754;-58
2022/10/24 04:50:26;;;;;;;;;;;23.10;57.80;;;;;;1505881;77;1418;-57
2022/10/24 04:52:28;;;;;;;;;;;23.20;57.60;;;;;;1505440;77;771;-54
2022/10/24 04:54:30;;;;;;;;;;;23.20;57.90;;;;;;1503879;77;699;-55
2022/10/24 04:56:32;;;;;;;;;;;23.10;57.90;;;;;;1502548;77;1949;-55
2022/10/24 04:58:34;;;;;;;;;;;23.10;58.00;;;;;;1513805;77;751;-57
2022/10/24 05:00:35;;;;;;;;;;;23.10;58.00;;;;;;1505564;77;749;-58
2022/10/24 05:02:37;;;;;;;;;;;23.10;58.00;;;;;;1505454;77;753;-57
2022/10/24 05:04:39;;;;;;;;;;;23.10;58.10;;;;;;1508084;77;1495;-57
2022/10/24 05:06:41;;;;;;;;;;;23.20;57.90;;;;;;1499393;79;1149;-57
2022/10/24 05:08:43;;;;;;;;;;;23.10;58.00;;;;;;1503872;77;697;-56
2022/10/24 05:10:45;;;;;;;;;;;23.10;57.90;;;;;;1510815;77;786;-54
2022/10/24 05:12:47;;;;;;;;;;;23.10;58.10;;;;;;1504523;77;767;-53
2022/10/24 05:14:49;;;;;;;;;;;23.10;58.30;;;;;;1503275;77;1935;-58
2022/10/24 05:16:50;;;;;;;;;;;23.00;58.40;;;;;;1496820;77;1130;-55
2022/10/24 05:18:52;;;;;;;;;;;23.00;58.40;;;;;;1505046;77;1482;-57
2022/10/24 05:20:57;;;;;;;;;;;23.00;58.50;;;;;;1493426;77;684;-57
2022/10/24 05:22:59;;;;;;;;;;;23.10;58.30;;;;;;1503272;77;793;-58
2022/10/24 05:25:01;;;;;;;;;;;23.20;57.80;;;;;;1505841;77;778;-57
2022/10/24 05:27:03;;;;;;;;;;;23.20;57.80;;;;;;1501707;77;1159;-58
2022/10/24 05:29:05;;;;;;;;;;;23.20;57.90;;;;;;1504447;77;972;-59
2022/10/24 05:31:07;;;;;;;;;;;23.20;57.80;;;;;;1504537;77;777;-58
2022/10/24 05:33:09;;;;;;;;;;;23.10;58.10;;;;;;1504896;77;1561;-58
2022/10/24 05:35:10;;;;;;;;;;;23.10;58.10;;;;;;1512124;77;1951;-58
2022/10/24 05:37:12;;;;;;;;;;;23.10;58.10;;;;;;1504231;77;1128;-57
2022/10/24 05:39:14;;;;;;;;;;;23.00;58.20;;;;;;1501388;77;776;-57
2022/10/24 05:41:16;;;;;;;;;;;23.10;58.40;;;;;;1500709;77;949;-56
2022/10/24 05:43:18;;;;;;;;;;;23.00;58.30;;;;;;1499478;77;886;-57
2022/10/24 05:45:20;;;;;;;;;;;23.00;58.40;;;;;;1496827;77;705;-57
2022/10/24 05:47:22;;;;;;;;;;;23.00;58.40;;;;;;1501148;77;1673;-57
2022/10/24 05:49:23;;;;;;;;;;;23.00;58.40;;;;;;1516955;77;738;-59
2022/10/24 05:51:26;;;;;;;;;;;23.00;58.30;;;;;;1506347;77;722;-57
2022/10/24 05:53:28;;;;;;;;;;;23.10;58.30;;;;;;1498497;77;781;-57
2022/10/24 05:55:30;;;;;;;;;;;23.00;58.20;;;;;;1503011;77;1937;-58
2022/10/24 05:57:32;;;;;;;;;;;23.10;58.10;;;;;;1501929;77;719;-58
2022/10/24 05:59:33;;;;;;;;;;;23.20;57.90;;;;;;1505082;77;788;-57
2022/10/24 06:01:35;;;;;;;;;;;23.20;57.60;;;;;;1500898;77;1627;-56
2022/10/24 06:03:38;;;;;;;;;;;23.30;57.50;;;;;;1502938;77;760;-57
2022/10/24 06:05:40;;;;;;;;;;;23.30;57.30;;;;;;1505618;77;1148;-57
2022/10/24 06:07:42;;;;;;;;;;;23.30;57.10;;;;;;1508393;77;684;-58
2022/10/24 06:09:44;;;;;;;;;;;23.40;56.90;;;;;;1502476;77;760;-56
2022/10/24 06:11:45;;;;;;;;;;;23.40;56.80;;;;;;1499151;77;733;-57
2022/10/24 06:13:47;;;;;;;;;;;23.30;56.70;;;;;;1508794;77;1505;-57
2022/10/24 06:15:49;;;;;;;;;;;23.30;56.70;;;;;;1505583;77;1927;-57
2022/10/24 06:17:51;;;;;;;;;;;23.30;56.70;;;;;;1501718;77;766;-57
2022/10/24 06:19:53;;;;;;;;;;;23.20;56.70;;;;;;1504263;77;729;-57
2022/10/24 06:21:55;;;;;;;;;;;23.20;56.80;;;;;;1503976;77;698;-58
2022/10/24 06:23:57;;;;;;;;;;;23.10;57.00;;;;;;1507826;77;774;-58
2022/10/24 06:25:59;;;;;;;;;;;23.10;57.00;;;;;;1495209;77;1173;-58
2022/10/24 06:28:00;;;;;;;;;;;23.10;57.10;;;;;;1504370;77;1583;-57
2022/10/24 06:30:03;;;;;;;;;;;23.10;56.90;;;;;;1503589;77;785;-58
2022/10/24 06:32:05;;;;;;;;;;;23.10;56.90;;;;;;1502493;77;746;-57
2022/10/24 06:34:07;;;;;;;;;;;23.10;57.10;;;;;;1493508;77;716;-57
2022/10/24 06:36:09;;;;;;;;;;;23.10;57.00;;;;;;1490349;77;1931;-58
2022/10/24 06:38:11;;;;;;;;;;;23.10;57.00;;;;;;1498354;77;719;-57
2022/10/24 06:40:13;;;;;;;;;;;23.10;57.00;;;;;;1505722;77;715;-57
2022/10/24 06:42:15;;;;;;;;;;;23.10;57.00;;;;;;1506629;77;1521;-57
2022/10/24 06:44:17;;;;;;;;;;;23.10;57.10;;;;;;1507869;77;804;-57
2022/10/24 06:46:22;;;;;;;;;;;23.10;57.00;;;;;;1507311;77;1175;-57
2022/10/24 06:48:22;;;;;;;;;;;23.10;57.00;;;;;;1501848;77;1721;-57
2022/10/24 06:50:24;;;;;;;;;;;23.10;57.00;;;;;;1514358;77;824;-58
2022/10/24 06:52:26;;;;;;;;;;;23.00;56.90;;;;;;1506596;77;728;-57
2022/10/24 06:54:28;;;;;;;;;;;23.10;57.00;;;;;;1500333;77;834;-57
2022/10/24 06:56:30;;;;;;;;;;;23.00;56.90;;;;;;1505047;77;1926;-58
2022/10/24 06:58:33;;;;;;;;;;;23.00;57.00;;;;;;1504538;77;761;-57
2022/10/24 07:00:35;;;;;;;;;;;23.00;57.00;;;;;;1492412;77;697;-57
2022/10/24 07:02:36;;;;;;;;;;;23.00;57.00;;;;;;1502310;77;734;-57
2022/10/24 07:04:38;;;;;;;;;;;23.00;56.90;;;;;;1494657;77;791;-57
2022/10/24 07:06:40;;;;;;;;;;;23.00;57.00;;;;;;1501918;77;1116;-57
2022/10/24 07:08:42;;;;;;;;;;;23.00;57.00;;;;;;1503123;77;761;-57
2022/10/24 07:10:44;;;;;;;;;;;23.00;57.00;;;;;;1504314;77;1540;-57
2022/10/24 07:12:46;;;;;;;;;;;23.10;57.00;;;;;;1494771;77;610;-57
2022/10/24 07:14:48;;;;;;;;;;;23.10;57.00;;;;;;1497898;77;749;-58
2022/10/24 07:16:50;;;;;;;;;;;23.00;56.90;;;;;;1513890;77;1947;-57
2022/10/24 07:18:52;;;;;;;;;;;23.00;56.90;;;;;;1499933;77;749;-57
2022/10/24 07:20:54;;;;;;;;;;;23.00;56.90;;;;;;1494944;77;756;-58
2022/10/24 07:22:56;;;;;;;;;;;23.00;56.90;;;;;;1504560;77;715;-57
2022/10/24 07:24:58;;;;;;;;;;;23.00;57.00;;;;;;1499799;77;1538;-57
2022/10/24 07:27:00;;;;;;;;;;;23.00;57.00;;;;;;1499044;77;1182;-57
2022/10/24 07:29:02;;;;;;;;;;;23.00;57.00;;;;;;1499252;77;789;-57
2022/10/24 07:31:04;;;;;;;;;;;23.00;57.00;;;;;;1501876;77;683;-57
2022/10/24 07:33:05;;;;;;;;;;;23.00;57.00;;;;;;1493823;77;878;-57
2022/10/24 07:35:08;;;;;;;;;;;23.00;57.10;;;;;;1505177;77;726;-57
2022/10/24 07:37:09;;;;;;;;;;;23.00;57.00;;;;;;1496055;78;1955;-56
2022/10/24 07:39:12;;;;;;;;;;;23.00;57.00;;;;;;1504784;77;1520;-57
2022/10/24 07:41:14;;;;;;;;;;;23.00;57.00;;;;;;1509080;78;767;-57
2022/10/24 07:43:15;;;;;;;;;;;23.00;56.90;;;;;;1505136;77;722;-57
2022/10/24 07:45:17;;;;;;;;;;;23.00;56.90;;;;;;1513283;77;722;-57
2022/10/24 07:47:19;;;;;;;;;;;23.00;57.00;;;;;;1505180;77;1161;-57
2022/10/24 07:49:21;;;;;;;;;;;23.00;57.00;;;;;;1503482;77;692;-58
2022/10/24 07:51:26;;;;;;;;;;;23.00;57.00;;;;;;1502854;77;689;-58
2022/10/24 07:53:26;;;;;;;;;;;23.00;57.00;;;;;;1502278;77;1631;-57
2022/10/24 07:55:28;;;;;;;;;;;23.00;57.00;;;;;;1501356;77;1143;-58
2022/10/24 07:57:30;;;;;;;;;;;23.00;57.10;;;;;;1499440;77;1959;-58
2022/10/24 07:59:32;;;;;;;;;;;22.90;57.00;;;;;;1502153;77;895;-58
2022/10/24 08:01:34;;;;;;;;;;;22.90;57.10;;;;;;1504360;77;782;-58
2022/10/24 08:03:36;;;;;;;;;;;22.90;57.10;;;;;;1498105;77;742;-57
2022/10/24 08:05:41;;;;;;;;;;;22.90;57.10;;;;;;1501002;77;1139;-57
2022/10/24 08:07:42;;;;;;;;;;;23.00;57.10;;;;;;1503865;77;1520;-57
2022/10/24 08:09:45;;;;;;;;;;;23.00;57.00;;;;;;1503127;77;706;-57
2022/10/24 08:11:47;;;;;;;;;;;23.00;56.70;;;;;;1505037;77;689;-56
2022/10/24 08:13:49;;;;;;;;;;;23.00;56.80;;;;;;1504350;77;722;-56
2022/10/24 08:15:51;;;;;;;;;;;23.00;56.50;;;;;;1505039;77;1157;-56
2022/10/24 08:17:56;;;;;;;;;;;23.10;56.50;;;;;;1503372;77;2013;-56
2022/10/24 08:19:58;;;;;;;;;;;23.10;56.50;;;;;;1502577;77;760;-59
2022/10/24 08:22:00;;;;;;;;;;;23.00;56.30;;;;;;1505947;77;1574;-59
2022/10/24 08:24:02;;;;;;;;;;;23.00;56.50;;;;;;1502324;77;750;-58
2022/10/24 08:26:05;;;;;;;;;;;22.90;56.70;;;;;;1502518;77;1195;-56
2022/10/24 08:28:06;;;;;;;;;;;22.90;56.70;;;;;;1507548;77;845;-57
2022/10/24 08:30:08;;;;;;;;;;;22.90;56.70;;;;;;1505116;77;814;-57
2022/10/24 08:32:10;;;;;;;;;;;22.90;56.60;;;;;;1500610;77;774;-57
2022/10/24 08:34:13;;;;;;;;;;;22.90;56.60;;;;;;1498721;78;800;-57
2022/10/24 08:36:22;;;;;;;;;;;22.80;56.60;;;;;;1510347;77;2353;-56
2022/10/24 08:38:24;;;;;;;;;;;22.90;56.60;;;;;;1500468;78;687;-56
2022/10/24 08:40:26;;;;;;;;;;;22.90;56.50;;;;;;1497024;78;716;-56
2022/10/24 08:42:28;;;;;;;;;;;22.90;56.40;;;;;;1504506;77;788;-56
2022/10/24 08:44:34;;;;;;;;;;;22.90;56.50;;;;;;1504593;77;673;-55
2022/10/24 08:46:49;;;;;;;;;;;22.90;56.30;;;;;;1493339;77;1489;-56
2022/10/24 08:48:52;;;;;;;;;;;22.80;56.10;;;;;;1440870;81;1567;-55
2022/10/24 08:50:55;;;;;;;;;;;22.70;56.30;;;;;;1490735;77;941;-56
2022/10/24 08:53:01;;;;;;;;;;;22.70;56.40;;;;;;1504039;77;773;-56
2022/10/24 08:55:08;;;;;;;;;;;22.80;56.50;;;;;;1502123;77;733;-56
2022/10/24 08:57:10;;;;;;;;;;;22.70;56.40;;;;;;1502785;77;1942;-56
2022/10/24 08:59:12;;;;;;;;;;;22.60;56.40;;;;;;1508780;77;748;-55
2022/10/24 09:01:18;;;;;;;;;;;22.80;56.40;;;;;;1500571;77;873;-58
2022/10/24 09:03:32;;;;;;;;;;;22.70;56.50;;;;;;1506395;78;1527;-56
2022/10/24 09:05:35;;;;;;;;;;;22.80;56.30;;;;;;1506467;77;1128;-56
2022/10/24 09:07:37;;;;;;;;;;;22.80;56.30;;;;;;1506859;77;747;-55
2022/10/24 09:09:41;;;;;;;;;;;22.90;56.50;;;;;;1506007;77;781;-56
2022/10/24 09:11:45;;;;;;;;;;;22.90;56.20;;;;;;1508428;77;694;-56
2022/10/24 09:13:46;;;;;;;;;;;23.00;56.00;;;;;;1502046;77;761;-57
2022/10/24 09:15:48;;;;;;;;;;;22.90;56.20;;;;;;1505148;77;1149;-56
2022/10/24 09:17:50;;;;;;;;;;;22.90;56.20;;;;;;1502551;77;1939;-55
2022/10/24 09:19:54;;;;;;;;;;;22.90;56.30;;;;;;1501728;77;711;-56
2022/10/24 09:21:56;;;;;;;;;;;22.80;56.40;;;;;;1504479;77;840;-55
2022/10/24 09:23:58;;;;;;;;;;;22.80;56.50;;;;;;1504142;77;737;-56
2022/10/24 09:26:00;;;;;;;;;;;22.80;56.70;;;;;;1504198;77;1188;-57
2022/10/24 09:28:02;;;;;;;;;;;22.60;56.80;;;;;;1501586;77;715;-57
2022/10/24 09:30:05;;;;;;;;;;;22.70;57.00;;;;;;1504459;77;784;-56
2022/10/24 09:32:08;;;;;;;;;;;22.60;56.90;;;;;;1505477;77;1555;-58
2022/10/24 09:34:10;;;;;;;;;;;22.60;57.10;;;;;;1503928;77;2086;-57
2022/10/24 09:36:13;;;;;;;;;;;22.50;57.10;;;;;;1497663;77;1147;-57
2022/10/24 09:38:30;;;;;;;;;;;22.60;57.30;;;;;;1505157;77;1953;-57
2022/10/24 09:40:32;;;;;;;;;;;22.60;57.40;;;;;;1502392;77;1510;-57
2022/10/24 09:42:36;;;;;;;;;;;22.50;57.50;;;;;;1509985;77;743;-56
2022/10/24 09:44:40;;;;;;;;;;;22.50;57.50;;;;;;1495416;77;1641;-57
2022/10/24 09:46:44;;;;;;;;;;;22.50;57.60;;;;;;1498486;77;1755;-57
2022/10/24 09:48:50;;;;;;;;;;;22.50;57.70;;;;;;1504993;77;948;-56
2022/10/24 09:50:52;;;;;;;;;;;22.40;57.60;;;;;;1500581;77;746;-57
2022/10/24 09:52:56;;;;;;;;;;;22.40;57.70;;;;;;1506621;77;793;-56
2022/10/24 09:55:05;;;;;;;;;;;22.40;57.70;;;;;;1504332;77;788;-56
2022/10/24 09:57:11;;;;;;;;;;;22.40;57.70;;;;;;1499655;77;1945;-58
2022/10/24 09:59:17;;;;;;;;;;;22.40;57.80;;;;;;1505349;77;1549;-59
2022/10/24 10:01:19;;;;;;;;;;;22.40;57.80;;;;;;1503081;77;741;-59
2022/10/24 10:03:21;;;;;;;;;;;22.40;57.90;;;;;;1503402;77;773;-59
2022/10/24 10:05:23;;;;;;;;;;;22.40;57.90;;;;;;1503729;77;1089;-59
2022/10/24 10:07:26;;;;;;;;;;;22.30;57.90;;;;;;1503390;77;892;-57
2022/10/24 10:09:30;;;;;;;;;;;22.40;57.90;;;;;;1504723;77;772;-59
2022/10/24 10:11:32;;;;;;;;;;;22.40;58.00;;;;;;1504787;77;1731;-58
2022/10/24 10:13:37;;;;;;;;;;;22.40;58.00;;;;;;1503411;77;1521;-57
2022/10/24 10:15:40;;;;;;;;;;;22.40;58.00;;;;;;1504571;77;1696;-58
2022/10/24 10:17:44;;;;;;;;;;;22.40;58.10;;;;;;1503008;77;2016;-58
2022/10/24 10:19:47;;;;;;;;;;;22.40;58.10;;;;;;1474120;77;1425;-58
2022/10/24 10:22:01;;;;;;;;;;;22.40;58.10;;;;;;1503992;77;722;-58
2022/10/24 10:24:04;;;;;;;;;;;22.50;58.00;;;;;;1510105;77;720;-57
2022/10/24 10:26:20;;;;;;;;;;;22.60;57.90;;;;;;1477439;78;1255;-57
2022/10/24 10:28:22;;;;;;;;;;;22.60;57.80;;;;;;1503176;77;1512;-57
2022/10/24 10:30:24;;;;;;;;;;;22.60;57.60;;;;;;1507241;77;808;-57
2022/10/24 10:32:28;;;;;;;;;;;22.80;57.40;;;;;;1496100;78;984;-58
2022/10/24 10:34:37;;;;;;;;;;;22.70;57.40;;;;;;1499352;78;780;-57
2022/10/24 10:36:53;;;;;;;;;;;22.80;57.10;;;;;;1500545;77;1119;-57
2022/10/24 10:39:14;;;;;;;;;;;22.80;57.10;;;;;;1455771;79;1045;-57
2022/10/24 10:41:35;;;;;;;;;;;22.90;57.10;;;;;;1502078;77;1598;-57
2022/10/24 10:43:37;;;;;;;;;;;22.90;57.10;;;;;;1505054;77;603;-57
2022/10/24 10:45:46;;;;;;;;;;;22.90;57.00;;;;;;1516187;77;1163;-55
2022/10/24 10:47:49;;;;;;;;;;;22.90;56.90;;;;;;1509903;77;761;-57
2022/10/24 10:49:53;;;;;;;;;;;23.00;56.80;;;;;;1493682;77;802;-58
2022/10/24 10:52:14;;;;;;;;;;;23.10;56.80;;;;;;1504471;77;790;-56
2022/10/24 10:54:35;;;;;;;;;;;23.00;56.50;;;;;;1502605;77;883;-58
2022/10/24 10:56:41;;;;;;;;;;;23.10;56.50;;;;;;1508774;77;1607;-58
2022/10/24 10:58:57;;;;;;;;;;;23.10;56.50;;;;;;1504220;77;1950;-56
2022/10/24 11:01:00;;;;;;;;;;;23.10;56.50;;;;;;1503163;77;2250;-56
2022/10/24 11:03:04;;;;;;;;;;;23.10;56.40;;;;;;1503224;77;670;-53
2022/10/24 11:05:16;;;;;;;;;;;23.10;56.40;;;;;;1508071;77;1016;-57
2022/10/24 11:07:20;;;;;;;;;;;23.20;56.40;;;;;;1492784;77;2163;-56
2022/10/24 11:09:26;;;;;;;;;;;23.10;56.40;;;;;;1488914;78;1550;-56
2022/10/24 11:11:29;;;;;;;;;;;23.20;56.30;;;;;;1492772;77;797;-56
2022/10/24 11:13:33;;;;;;;;;;;23.20;56.30;;;;;;1501383;77;723;-54
2022/10/24 11:15:35;;;;;;;;;;;23.20;56.30;;;;;;1506077;77;1825;-56
2022/10/24 11:17:39;;;;;;;;;;;23.20;56.30;;;;;;1507368;77;1933;-56
2022/10/24 11:19:42;;;;;;;;;;;23.20;56.20;;;;;;1502117;77;804;-55
2022/10/24 11:21:44;;;;;;;;;;;23.20;56.20;;;;;;1512010;77;2117;-56
2022/10/24 11:23:48;;;;;;;;;;;23.20;56.20;;;;;;1502675;77;1514;-54
2022/10/24 11:25:57;;;;;;;;;;;23.20;56.00;;;;;;1509318;77;1154;-57
2022/10/24 11:28:13;;;;;;;;;;;23.20;56.20;;;;;;1506651;77;719;-52
2022/10/24 11:30:15;;;;;;;;;;;23.10;56.30;;;;;;1504978;77;639;-53
2022/10/24 11:32:31;;;;;;;;;;;23.10;56.50;;;;;;1501375;77;772;-56
2022/10/24 11:34:34;;;;;;;;;;;23.10;56.50;;;;;;1503643;77;807;-56
2022/10/24 11:36:37;;;;;;;;;;;23.10;56.50;;;;;;1505284;78;1199;-56
2022/10/24 11:38:53;;;;;;;;;;;23.10;56.50;;;;;;1505178;77;1934;-54
2022/10/24 11:40:56;;;;;;;;;;;23.10;56.50;;;;;;1494742;77;1798;-56
2022/10/24 11:43:16;;;;;;;;;;;23.10;56.50;;;;;;1506458;77;798;-53
2022/10/24 11:45:18;;;;;;;;;;;23.10;56.50;;;;;;1516447;77;791;-56
2022/10/24 11:47:24;;;;;;;;;;;23.10;56.50;;;;;;1490812;77;1140;-54
2022/10/24 11:49:30;;;;;;;;;;;23.10;56.50;;;;;;1498410;77;814;-55
2022/10/24 11:51:37;;;;;;;;;;;23.10;56.50;;;;;;1512166;77;1316;-54
2022/10/24 11:53:40;;;;;;;;;;;23.10;56.50;;;;;;1505646;77;724;-55
2022/10/24 11:55:45;;;;;;;;;;;23.00;56.50;;;;;;1503167;77;1889;-57
2022/10/24 11:57:48;;;;;;;;;;;23.00;56.60;;;;;;1505408;77;1922;-53
2022/10/24 11:59:51;;;;;;;;;;;23.00;56.60;;;;;;1503904;77;2287;-56
2022/10/24 12:01:58;;;;;;;;;;;23.00;56.50;;;;;;1496901;77;772;-55
2022/10/24 12:04:07;;;;;;;;;;;23.10;56.60;;;;;;1490699;78;1905;-56
2022/10/24 12:06:16;;;;;;;;;;;23.10;56.60;;;;;;1500858;77;2062;-56
2022/10/24 12:08:27;;;;;;;;;;;23.10;56.60;;;;;;1492865;77;778;-56
2022/10/24 12:10:40;;;;;;;;;;;23.00;56.50;;;;;;1504110;77;784;-56
2022/10/24 12:12:43;;;;;;;;;;;23.00;56.50;;;;;;1496566;78;1058;-56
2022/10/24 12:14:50;;;;;;;;;;;22.90;56.60;;;;;;1508918;77;956;-56
2022/10/24 12:16:53;;;;;;;;;;;23.00;56.60;;;;;;1506267;77;1080;-53